sensor_id;sensor_type;location;lat;lon;timestamp;P1;durP1;ratioP1;P2;durP2;ratioP2
33696;SDS011;20031;43.416;23.232;2023-03-14T00:00:45;28.55;;;14.65;;
33696;SDS011;20031;43.416;23.232;2023-03-14T00:03:10;39.05;;;17.42;;
33696;SDS011;20031;43.416;23.232;2023-03-14T00:05:35;21.20;;;9.77;;
33696;SDS011;20031;43.416;23.232;2023-03-14T00:08:01;19.98;;;10.25;;
33696;SDS011;20031;43.416;23.232;2023-03-14T00:10:26;27.98;;;14.07;;
33696;SDS011;20031;43.416;23.232;2023-03-14T00:12:52;24.90;;;13.30;;
33696;SDS011;20031;43.416;23.232;2023-03-14T00:15:17;28.70;;;13.70;;
33696;SDS011;20031;43.416;23.232;2023-03-14T00:17:43;24.25;;;11.73;;
33696;SDS011;20031;43.416;23.232;2023-03-14T00:20:09;20.88;;;10.38;;
33696;SDS011;20031;43.416;23.232;2023-03-14T00:22:37;12.02;;;7.10;;
33696;SDS011;20031;43.416;23.232;2023-03-14T00:25:03;15.63;;;9.02;;
33696;SDS011;20031;43.416;23.232;2023-03-14T00:27:30;15.07;;;8.43;;
33696;SDS011;20031;43.416;23.232;2023-03-14T00:29:56;15.57;;;9.25;;
33696;SDS011;20031;43.416;23.232;2023-03-14T00:32:21;17.00;;;9.07;;
33696;SDS011;20031;43.416;23.232;2023-03-14T00:34:47;19.45;;;8.85;;
33696;SDS011;20031;43.416;23.232;2023-03-14T00:37:13;35.13;;;16.70;;
33696;SDS011;20031;43.416;23.232;2023-03-14T00:39:38;27.48;;;13.25;;
33696;SDS011;20031;43.416;23.232;2023-03-14T00:42:04;25.48;;;12.98;;
33696;SDS011;20031;43.416;23.232;2023-03-14T00:44:29;27.10;;;12.30;;
33696;SDS011;20031;43.416;23.232;2023-03-14T00:46:55;24.35;;;12.35;;
33696;SDS011;20031;43.416;23.232;2023-03-14T00:49:20;24.23;;;11.98;;
33696;SDS011;20031;43.416;23.232;2023-03-14T00:51:45;26.10;;;11.55;;
33696;SDS011;20031;43.416;23.232;2023-03-14T00:54:11;24.13;;;11.13;;
33696;SDS011;20031;43.416;23.232;2023-03-14T00:56:36;21.50;;;10.45;;
33696;SDS011;20031;43.416;23.232;2023-03-14T00:59:02;17.77;;;7.70;;
33696;SDS011;20031;43.416;23.232;2023-03-14T01:01:27;12.80;;;7.63;;
33696;SDS011;20031;43.416;23.232;2023-03-14T01:03:53;13.80;;;7.50;;
33696;SDS011;20031;43.416;23.232;2023-03-14T01:06:21;17.27;;;7.80;;
33696;SDS011;20031;43.416;23.232;2023-03-14T01:08:49;18.10;;;8.25;;
33696;SDS011;20031;43.416;23.232;2023-03-14T01:11:21;25.42;;;10.57;;
33696;SDS011;20031;43.416;23.232;2023-03-14T01:13:48;28.98;;;16.13;;
33696;SDS011;20031;43.416;23.232;2023-03-14T01:16:14;31.40;;;12.32;;
33696;SDS011;20031;43.416;23.232;2023-03-14T01:18:41;23.35;;;11.55;;
33696;SDS011;20031;43.416;23.232;2023-03-14T01:21:16;39.17;;;19.52;;
33696;SDS011;20031;43.416;23.232;2023-03-14T01:23:43;38.90;;;19.67;;
33696;SDS011;20031;43.416;23.232;2023-03-14T01:26:10;37.42;;;18.58;;
33696;SDS011;20031;43.416;23.232;2023-03-14T01:28:37;35.92;;;17.60;;
33696;SDS011;20031;43.416;23.232;2023-03-14T01:31:07;37.58;;;18.02;;
33696;SDS011;20031;43.416;23.232;2023-03-14T01:33:34;31.98;;;16.05;;
33696;SDS011;20031;43.416;23.232;2023-03-14T01:35:59;28.60;;;15.60;;
33696;SDS011;20031;43.416;23.232;2023-03-14T01:38:27;35.97;;;16.45;;
33696;SDS011;20031;43.416;23.232;2023-03-14T01:40:53;27.83;;;15.50;;
33696;SDS011;20031;43.416;23.232;2023-03-14T01:43:19;28.88;;;17.40;;
33696;SDS011;20031;43.416;23.232;2023-03-14T01:48:24;46.60;;;16.73;;
33696;SDS011;20031;43.416;23.232;2023-03-14T01:50:53;60.97;;;17.20;;
33696;SDS011;20031;43.416;23.232;2023-03-14T01:53:19;36.85;;;18.25;;
33696;SDS011;20031;43.416;23.232;2023-03-14T01:55:47;42.20;;;18.67;;
33696;SDS011;20031;43.416;23.232;2023-03-14T01:58:17;44.55;;;24.27;;
33696;SDS011;20031;43.416;23.232;2023-03-14T02:00:45;43.10;;;23.08;;
33696;SDS011;20031;43.416;23.232;2023-03-14T02:03:11;43.92;;;20.02;;
33696;SDS011;20031;43.416;23.232;2023-03-14T02:05:41;29.60;;;14.38;;
33696;SDS011;20031;43.416;23.232;2023-03-14T02:08:10;25.63;;;11.00;;
33696;SDS011;20031;43.416;23.232;2023-03-14T02:10:39;31.02;;;9.88;;
33696;SDS011;20031;43.416;23.232;2023-03-14T02:13:08;19.95;;;8.98;;
33696;SDS011;20031;43.416;23.232;2023-03-14T02:15:34;17.20;;;8.77;;
33696;SDS011;20031;43.416;23.232;2023-03-14T02:18:00;20.27;;;7.60;;
33696;SDS011;20031;43.416;23.232;2023-03-14T02:23:02;18.33;;;8.98;;
33696;SDS011;20031;43.416;23.232;2023-03-14T02:25:34;20.58;;;9.70;;
33696;SDS011;20031;43.416;23.232;2023-03-14T02:28:08;20.52;;;10.85;;
33696;SDS011;20031;43.416;23.232;2023-03-14T02:30:34;25.80;;;12.63;;
33696;SDS011;20031;43.416;23.232;2023-03-14T02:33:04;27.13;;;12.40;;
33696;SDS011;20031;43.416;23.232;2023-03-14T02:35:40;20.42;;;11.88;;
33696;SDS011;20031;43.416;23.232;2023-03-14T02:38:17;24.33;;;11.90;;
33696;SDS011;20031;43.416;23.232;2023-03-14T02:40:45;23.98;;;10.25;;
33696;SDS011;20031;43.416;23.232;2023-03-14T02:43:11;16.92;;;9.25;;
33696;SDS011;20031;43.416;23.232;2023-03-14T02:45:41;20.70;;;8.80;;
33696;SDS011;20031;43.416;23.232;2023-03-14T02:48:11;21.45;;;8.90;;
33696;SDS011;20031;43.416;23.232;2023-03-14T02:50:43;86.68;;;11.18;;
33696;SDS011;20031;43.416;23.232;2023-03-14T02:53:12;24.00;;;9.90;;
33696;SDS011;20031;43.416;23.232;2023-03-14T02:55:44;35.47;;;11.07;;
33696;SDS011;20031;43.416;23.232;2023-03-14T02:58:10;25.63;;;9.60;;
33696;SDS011;20031;43.416;23.232;2023-03-14T03:00:36;26.67;;;10.35;;
33696;SDS011;20031;43.416;23.232;2023-03-14T03:03:01;27.33;;;11.02;;
33696;SDS011;20031;43.416;23.232;2023-03-14T03:05:26;22.92;;;9.70;;
33696;SDS011;20031;43.416;23.232;2023-03-14T03:07:52;26.38;;;10.45;;
33696;SDS011;20031;43.416;23.232;2023-03-14T03:10:17;34.78;;;10.70;;
33696;SDS011;20031;43.416;23.232;2023-03-14T03:12:43;29.20;;;10.32;;
33696;SDS011;20031;43.416;23.232;2023-03-14T03:15:09;23.33;;;10.27;;
33696;SDS011;20031;43.416;23.232;2023-03-14T03:17:35;26.52;;;10.63;;
33696;SDS011;20031;43.416;23.232;2023-03-14T03:20:00;26.27;;;9.85;;
33696;SDS011;20031;43.416;23.232;2023-03-14T03:22:25;30.77;;;10.13;;
33696;SDS011;20031;43.416;23.232;2023-03-14T03:24:51;21.50;;;9.88;;
33696;SDS011;20031;43.416;23.232;2023-03-14T03:27:16;32.63;;;10.50;;
33696;SDS011;20031;43.416;23.232;2023-03-14T03:29:42;22.60;;;9.65;;
33696;SDS011;20031;43.416;23.232;2023-03-14T03:32:07;19.85;;;8.27;;
33696;SDS011;20031;43.416;23.232;2023-03-14T03:34:33;21.13;;;8.70;;
33696;SDS011;20031;43.416;23.232;2023-03-14T03:36:58;26.00;;;8.93;;
33696;SDS011;20031;43.416;23.232;2023-03-14T03:39:23;33.42;;;7.68;;
33696;SDS011;20031;43.416;23.232;2023-03-14T03:41:49;31.50;;;8.27;;
33696;SDS011;20031;43.416;23.232;2023-03-14T03:44:14;22.20;;;7.22;;
33696;SDS011;20031;43.416;23.232;2023-03-14T03:46:40;19.23;;;7.18;;
33696;SDS011;20031;43.416;23.232;2023-03-14T03:49:05;20.35;;;6.30;;
33696;SDS011;20031;43.416;23.232;2023-03-14T03:51:31;18.55;;;6.72;;
33696;SDS011;20031;43.416;23.232;2023-03-14T03:53:56;17.08;;;6.35;;
33696;SDS011;20031;43.416;23.232;2023-03-14T03:56:22;14.43;;;6.30;;
33696;SDS011;20031;43.416;23.232;2023-03-14T03:58:47;17.10;;;6.22;;
33696;SDS011;20031;43.416;23.232;2023-03-14T04:01:12;20.42;;;6.93;;
33696;SDS011;20031;43.416;23.232;2023-03-14T04:03:38;16.00;;;6.22;;
33696;SDS011;20031;43.416;23.232;2023-03-14T04:06:08;20.15;;;5.97;;
33696;SDS011;20031;43.416;23.232;2023-03-14T04:08:36;15.95;;;5.65;;
33696;SDS011;20031;43.416;23.232;2023-03-14T04:11:02;27.08;;;6.10;;
33696;SDS011;20031;43.416;23.232;2023-03-14T04:13:28;30.35;;;5.93;;
33696;SDS011;20031;43.416;23.232;2023-03-14T04:15:54;15.32;;;5.95;;
33696;SDS011;20031;43.416;23.232;2023-03-14T04:18:20;24.67;;;6.72;;
33696;SDS011;20031;43.416;23.232;2023-03-14T04:20:53;22.20;;;7.18;;
33696;SDS011;20031;43.416;23.232;2023-03-14T04:23:20;21.25;;;6.70;;
33696;SDS011;20031;43.416;23.232;2023-03-14T04:25:49;15.38;;;6.50;;
33696;SDS011;20031;43.416;23.232;2023-03-14T04:28:15;18.55;;;7.60;;
33696;SDS011;20031;43.416;23.232;2023-03-14T04:30:40;34.50;;;11.38;;
33696;SDS011;20031;43.416;23.232;2023-03-14T04:33:06;21.17;;;11.32;;
33696;SDS011;20031;43.416;23.232;2023-03-14T04:35:32;23.75;;;11.45;;
33696;SDS011;20031;43.416;23.232;2023-03-14T04:37:58;24.33;;;11.15;;
33696;SDS011;20031;43.416;23.232;2023-03-14T04:40:24;23.35;;;10.32;;
33696;SDS011;20031;43.416;23.232;2023-03-14T04:42:50;39.40;;;11.70;;
33696;SDS011;20031;43.416;23.232;2023-03-14T04:45:15;26.80;;;11.38;;
33696;SDS011;20031;43.416;23.232;2023-03-14T04:47:40;39.05;;;12.45;;
33696;SDS011;20031;43.416;23.232;2023-03-14T04:50:06;45.60;;;14.48;;
33696;SDS011;20031;43.416;23.232;2023-03-14T04:52:33;52.25;;;14.73;;
33696;SDS011;20031;43.416;23.232;2023-03-14T04:54:58;27.58;;;9.60;;
33696;SDS011;20031;43.416;23.232;2023-03-14T04:57:23;59.67;;;12.77;;
33696;SDS011;20031;43.416;23.232;2023-03-14T04:59:49;67.70;;;14.93;;
33696;SDS011;20031;43.416;23.232;2023-03-14T05:02:14;41.65;;;11.85;;
33696;SDS011;20031;43.416;23.232;2023-03-14T05:04:40;37.97;;;10.65;;
33696;SDS011;20031;43.416;23.232;2023-03-14T05:07:05;44.80;;;10.38;;
33696;SDS011;20031;43.416;23.232;2023-03-14T05:09:30;57.80;;;13.18;;
33696;SDS011;20031;43.416;23.232;2023-03-14T05:11:56;33.17;;;10.93;;
33696;SDS011;20031;43.416;23.232;2023-03-14T05:14:21;22.35;;;10.77;;
33696;SDS011;20031;43.416;23.232;2023-03-14T05:16:47;21.17;;;8.98;;
33696;SDS011;20031;43.416;23.232;2023-03-14T05:19:12;23.98;;;10.15;;
33696;SDS011;20031;43.416;23.232;2023-03-14T05:21:37;21.17;;;10.20;;
33696;SDS011;20031;43.416;23.232;2023-03-14T05:24:03;18.20;;;8.85;;
33696;SDS011;20031;43.416;23.232;2023-03-14T05:26:29;18.58;;;8.52;;
33696;SDS011;20031;43.416;23.232;2023-03-14T05:28:54;18.77;;;8.15;;
33696;SDS011;20031;43.416;23.232;2023-03-14T05:31:19;29.92;;;9.60;;
33696;SDS011;20031;43.416;23.232;2023-03-14T05:33:45;40.75;;;12.00;;
33696;SDS011;20031;43.416;23.232;2023-03-14T05:36:11;31.63;;;9.25;;
33696;SDS011;20031;43.416;23.232;2023-03-14T05:38:36;32.00;;;10.75;;
33696;SDS011;20031;43.416;23.232;2023-03-14T05:41:02;66.97;;;22.50;;
33696;SDS011;20031;43.416;23.232;2023-03-14T05:43:27;27.88;;;11.30;;
33696;SDS011;20031;43.416;23.232;2023-03-14T05:45:53;25.73;;;11.73;;
33696;SDS011;20031;43.416;23.232;2023-03-14T05:48:18;31.63;;;13.75;;
33696;SDS011;20031;43.416;23.232;2023-03-14T05:50:44;28.05;;;12.55;;
33696;SDS011;20031;43.416;23.232;2023-03-14T05:53:09;20.77;;;10.80;;
33696;SDS011;20031;43.416;23.232;2023-03-14T05:55:35;28.92;;;11.52;;
33696;SDS011;20031;43.416;23.232;2023-03-14T05:58:00;20.02;;;10.32;;
33696;SDS011;20031;43.416;23.232;2023-03-14T06:00:25;29.52;;;10.52;;
33696;SDS011;20031;43.416;23.232;2023-03-14T06:02:51;33.35;;;12.02;;
33696;SDS011;20031;43.416;23.232;2023-03-14T06:05:17;46.28;;;13.77;;
33696;SDS011;20031;43.416;23.232;2023-03-14T06:07:42;35.53;;;12.65;;
33696;SDS011;20031;43.416;23.232;2023-03-14T06:10:08;51.08;;;12.80;;
33696;SDS011;20031;43.416;23.232;2023-03-14T06:12:34;56.05;;;16.67;;
33696;SDS011;20031;43.416;23.232;2023-03-14T06:14:59;51.97;;;18.75;;
33696;SDS011;20031;43.416;23.232;2023-03-14T06:17:25;46.90;;;18.38;;
33696;SDS011;20031;43.416;23.232;2023-03-14T06:19:50;38.28;;;17.08;;
33696;SDS011;20031;43.416;23.232;2023-03-14T06:22:16;47.85;;;16.95;;
33696;SDS011;20031;43.416;23.232;2023-03-14T06:24:41;45.80;;;17.17;;
33696;SDS011;20031;43.416;23.232;2023-03-14T06:27:06;53.92;;;13.82;;
33696;SDS011;20031;43.416;23.232;2023-03-14T06:29:32;93.07;;;16.42;;
33696;SDS011;20031;43.416;23.232;2023-03-14T06:31:58;224.85;;;22.08;;
33696;SDS011;20031;43.416;23.232;2023-03-14T06:34:23;29.35;;;9.85;;
33696;SDS011;20031;43.416;23.232;2023-03-14T06:36:48;54.15;;;12.70;;
33696;SDS011;20031;43.416;23.232;2023-03-14T06:39:14;57.95;;;22.50;;
33696;SDS011;20031;43.416;23.232;2023-03-14T06:41:39;60.80;;;22.90;;
33696;SDS011;20031;43.416;23.232;2023-03-14T06:44:05;50.45;;;17.73;;
33696;SDS011;20031;43.416;23.232;2023-03-14T06:46:30;779.15;;;47.28;;
33696;SDS011;20031;43.416;23.232;2023-03-14T06:48:56;83.93;;;15.52;;
33696;SDS011;20031;43.416;23.232;2023-03-14T06:51:21;78.22;;;21.35;;
33696;SDS011;20031;43.416;23.232;2023-03-14T06:53:47;52.22;;;18.38;;
33696;SDS011;20031;43.416;23.232;2023-03-14T06:56:12;35.13;;;14.30;;
33696;SDS011;20031;43.416;23.232;2023-03-14T06:58:38;19.63;;;12.13;;
33696;SDS011;20031;43.416;23.232;2023-03-14T07:01:03;36.90;;;14.55;;
33696;SDS011;20031;43.416;23.232;2023-03-14T07:03:29;33.00;;;14.88;;
33696;SDS011;20031;43.416;23.232;2023-03-14T07:05:54;39.50;;;16.30;;
33696;SDS011;20031;43.416;23.232;2023-03-14T07:08:20;35.92;;;16.80;;
33696;SDS011;20031;43.416;23.232;2023-03-14T07:10:45;32.08;;;14.60;;
33696;SDS011;20031;43.416;23.232;2023-03-14T07:13:11;33.63;;;15.73;;
33696;SDS011;20031;43.416;23.232;2023-03-14T07:15:37;33.78;;;15.05;;
33696;SDS011;20031;43.416;23.232;2023-03-14T07:18:02;31.38;;;13.50;;
33696;SDS011;20031;43.416;23.232;2023-03-14T07:20:28;21.70;;;13.25;;
33696;SDS011;20031;43.416;23.232;2023-03-14T07:22:54;27.02;;;14.40;;
33696;SDS011;20031;43.416;23.232;2023-03-14T07:25:20;28.75;;;13.65;;
33696;SDS011;20031;43.416;23.232;2023-03-14T07:27:45;43.30;;;14.77;;
33696;SDS011;20031;43.416;23.232;2023-03-14T07:30:13;49.72;;;16.67;;
33696;SDS011;20031;43.416;23.232;2023-03-14T07:32:38;44.80;;;15.43;;
33696;SDS011;20031;43.416;23.232;2023-03-14T07:35:04;56.83;;;16.52;;
33696;SDS011;20031;43.416;23.232;2023-03-14T07:37:30;43.45;;;15.45;;
33696;SDS011;20031;43.416;23.232;2023-03-14T07:39:55;39.60;;;15.82;;
33696;SDS011;20031;43.416;23.232;2023-03-14T07:42:21;36.88;;;15.60;;
33696;SDS011;20031;43.416;23.232;2023-03-14T07:44:46;38.80;;;14.70;;
33696;SDS011;20031;43.416;23.232;2023-03-14T07:47:12;21.30;;;13.95;;
33696;SDS011;20031;43.416;23.232;2023-03-14T07:49:37;22.73;;;12.98;;
33696;SDS011;20031;43.416;23.232;2023-03-14T07:52:02;28.52;;;13.27;;
33696;SDS011;20031;43.416;23.232;2023-03-14T07:54:28;24.35;;;13.73;;
33696;SDS011;20031;43.416;23.232;2023-03-14T07:56:53;23.98;;;14.00;;
33696;SDS011;20031;43.416;23.232;2023-03-14T07:59:19;21.98;;;13.45;;
33696;SDS011;20031;43.416;23.232;2023-03-14T08:01:45;23.35;;;14.23;;
33696;SDS011;20031;43.416;23.232;2023-03-14T08:04:11;33.70;;;15.25;;
33696;SDS011;20031;43.416;23.232;2023-03-14T08:06:36;23.42;;;14.13;;
33696;SDS011;20031;43.416;23.232;2023-03-14T08:09:02;27.02;;;14.88;;
33696;SDS011;20031;43.416;23.232;2023-03-14T08:11:28;26.92;;;13.60;;
33696;SDS011;20031;43.416;23.232;2023-03-14T08:13:54;19.88;;;13.13;;
33696;SDS011;20031;43.416;23.232;2023-03-14T08:16:19;25.25;;;13.38;;
33696;SDS011;20031;43.416;23.232;2023-03-14T08:18:45;36.35;;;15.77;;
33696;SDS011;20031;43.416;23.232;2023-03-14T08:21:11;27.77;;;14.27;;
33696;SDS011;20031;43.416;23.232;2023-03-14T08:23:37;29.33;;;15.45;;
33696;SDS011;20031;43.416;23.232;2023-03-14T08:26:02;28.95;;;15.38;;
33696;SDS011;20031;43.416;23.232;2023-03-14T08:28:28;21.65;;;12.77;;
33696;SDS011;20031;43.416;23.232;2023-03-14T08:30:56;22.55;;;12.40;;
33696;SDS011;20031;43.416;23.232;2023-03-14T08:33:22;20.63;;;12.00;;
33696;SDS011;20031;43.416;23.232;2023-03-14T08:35:51;40.45;;;15.68;;
33696;SDS011;20031;43.416;23.232;2023-03-14T08:38:17;25.20;;;13.27;;
33696;SDS011;20031;43.416;23.232;2023-03-14T08:40:43;20.02;;;12.50;;
33696;SDS011;20031;43.416;23.232;2023-03-14T08:43:08;26.05;;;12.82;;
33696;SDS011;20031;43.416;23.232;2023-03-14T08:45:34;20.33;;;11.73;;
33696;SDS011;20031;43.416;23.232;2023-03-14T08:47:59;19.42;;;11.88;;
33696;SDS011;20031;43.416;23.232;2023-03-14T08:50:25;24.50;;;12.80;;
33696;SDS011;20031;43.416;23.232;2023-03-14T08:52:50;20.63;;;10.75;;
33696;SDS011;20031;43.416;23.232;2023-03-14T08:55:16;22.20;;;12.48;;
33696;SDS011;20031;43.416;23.232;2023-03-14T08:57:41;18.48;;;11.90;;
33696;SDS011;20031;43.416;23.232;2023-03-14T09:00:07;22.25;;;10.93;;
33696;SDS011;20031;43.416;23.232;2023-03-14T09:02:37;34.45;;;12.18;;
33696;SDS011;20031;43.416;23.232;2023-03-14T09:05:03;20.63;;;11.18;;
33696;SDS011;20031;43.416;23.232;2023-03-14T09:07:29;21.52;;;10.82;;
33696;SDS011;20031;43.416;23.232;2023-03-14T09:09:54;16.42;;;10.10;;
33696;SDS011;20031;43.416;23.232;2023-03-14T09:12:20;15.23;;;10.52;;
33696;SDS011;20031;43.416;23.232;2023-03-14T09:14:45;21.90;;;11.00;;
33696;SDS011;20031;43.416;23.232;2023-03-14T09:17:11;26.35;;;12.07;;
33696;SDS011;20031;43.416;23.232;2023-03-14T09:19:36;18.02;;;10.80;;
33696;SDS011;20031;43.416;23.232;2023-03-14T09:22:02;19.50;;;11.70;;
33696;SDS011;20031;43.416;23.232;2023-03-14T09:24:28;21.10;;;11.02;;
33696;SDS011;20031;43.416;23.232;2023-03-14T09:26:54;19.30;;;10.68;;
33696;SDS011;20031;43.416;23.232;2023-03-14T09:29:21;19.10;;;11.50;;
33696;SDS011;20031;43.416;23.232;2023-03-14T09:31:47;17.00;;;10.77;;
33696;SDS011;20031;43.416;23.232;2023-03-14T09:34:12;24.20;;;11.32;;
33696;SDS011;20031;43.416;23.232;2023-03-14T09:36:38;31.08;;;11.88;;
33696;SDS011;20031;43.416;23.232;2023-03-14T09:39:04;24.73;;;11.95;;
33696;SDS011;20031;43.416;23.232;2023-03-14T09:41:33;18.13;;;10.32;;
33696;SDS011;20031;43.416;23.232;2023-03-14T09:46:34;19.77;;;10.90;;
33696;SDS011;20031;43.416;23.232;2023-03-14T09:49:01;20.00;;;11.25;;
33696;SDS011;20031;43.416;23.232;2023-03-14T09:51:27;20.05;;;11.55;;
33696;SDS011;20031;43.416;23.232;2023-03-14T09:53:53;33.78;;;11.75;;
33696;SDS011;20031;43.416;23.232;2023-03-14T09:56:19;27.20;;;11.40;;
33696;SDS011;20031;43.416;23.232;2023-03-14T09:58:56;19.90;;;11.10;;
33696;SDS011;20031;43.416;23.232;2023-03-14T10:01:29;118.25;;;14.10;;
33696;SDS011;20031;43.416;23.232;2023-03-14T10:03:56;22.63;;;11.75;;
33696;SDS011;20031;43.416;23.232;2023-03-14T10:06:30;24.90;;;11.77;;
33696;SDS011;20031;43.416;23.232;2023-03-14T10:08:56;18.60;;;11.35;;
33696;SDS011;20031;43.416;23.232;2023-03-14T10:11:22;19.55;;;11.25;;
33696;SDS011;20031;43.416;23.232;2023-03-14T10:13:49;20.33;;;10.95;;
33696;SDS011;20031;43.416;23.232;2023-03-14T10:16:41;23.98;;;10.82;;
33696;SDS011;20031;43.416;23.232;2023-03-14T10:19:15;17.48;;;9.30;;
33696;SDS011;20031;43.416;23.232;2023-03-14T10:21:50;17.88;;;10.32;;
33696;SDS011;20031;43.416;23.232;2023-03-14T10:26:52;14.57;;;9.38;;
33696;SDS011;20031;43.416;23.232;2023-03-14T10:29:19;53.60;;;10.75;;
33696;SDS011;20031;43.416;23.232;2023-03-14T10:34:21;13.32;;;8.55;;
33696;SDS011;20031;43.416;23.232;2023-03-14T10:36:54;16.38;;;8.68;;
33696;SDS011;20031;43.416;23.232;2023-03-14T10:41:52;18.05;;;9.10;;
33696;SDS011;20031;43.416;23.232;2023-03-14T10:44:20;13.77;;;8.82;;
33696;SDS011;20031;43.416;23.232;2023-03-14T10:46:56;16.10;;;8.13;;
33696;SDS011;20031;43.416;23.232;2023-03-14T10:49:33;19.52;;;9.15;;
33696;SDS011;20031;43.416;23.232;2023-03-14T10:52:13;15.20;;;8.48;;
33696;SDS011;20031;43.416;23.232;2023-03-14T10:54:40;19.75;;;9.13;;
33696;SDS011;20031;43.416;23.232;2023-03-14T10:57:06;23.35;;;9.18;;
33696;SDS011;20031;43.416;23.232;2023-03-14T10:59:35;16.13;;;9.98;;
33696;SDS011;20031;43.416;23.232;2023-03-14T11:05:33;22.25;;;8.60;;
33696;SDS011;20031;43.416;23.232;2023-03-14T11:07:42;19.80;;;8.77;;
33696;SDS011;20031;43.416;23.232;2023-03-14T11:26:52;19.63;;;8.13;;
33696;SDS011;20031;43.416;23.232;2023-03-14T11:42:42;17.17;;;7.30;;
33696;SDS011;20031;43.416;23.232;2023-03-14T11:45:18;17.00;;;8.75;;
33696;SDS011;20031;43.416;23.232;2023-03-14T11:48:15;15.85;;;6.93;;
33696;SDS011;20031;43.416;23.232;2023-03-14T11:53:15;23.77;;;7.60;;
33696;SDS011;20031;43.416;23.232;2023-03-14T11:55:47;20.48;;;9.32;;
33696;SDS011;20031;43.416;23.232;2023-03-14T11:58:25;17.08;;;8.05;;
33696;SDS011;20031;43.416;23.232;2023-03-14T12:00:56;25.42;;;9.13;;
33696;SDS011;20031;43.416;23.232;2023-03-14T12:11:17;26.98;;;9.60;;
33696;SDS011;20031;43.416;23.232;2023-03-14T12:14:15;20.45;;;8.95;;
33696;SDS011;20031;43.416;23.232;2023-03-14T12:16:47;14.23;;;8.15;;
33696;SDS011;20031;43.416;23.232;2023-03-14T12:19:21;15.18;;;7.63;;
33696;SDS011;20031;43.416;23.232;2023-03-14T12:24:34;19.33;;;9.23;;
33696;SDS011;20031;43.416;23.232;2023-03-14T12:27:04;13.60;;;8.25;;
33696;SDS011;20031;43.416;23.232;2023-03-14T12:29:31;16.55;;;7.78;;
33696;SDS011;20031;43.416;23.232;2023-03-14T12:34:27;21.30;;;8.65;;
33696;SDS011;20031;43.416;23.232;2023-03-14T12:45:55;17.85;;;8.70;;
33696;SDS011;20031;43.416;23.232;2023-03-14T12:51:05;16.15;;;8.40;;
33696;SDS011;20031;43.416;23.232;2023-03-14T12:59:21;25.25;;;8.60;;
33696;SDS011;20031;43.416;23.232;2023-03-14T13:01:56;16.17;;;7.55;;
33696;SDS011;20031;43.416;23.232;2023-03-14T13:09:51;14.65;;;7.53;;
33696;SDS011;20031;43.416;23.232;2023-03-14T13:12:31;17.90;;;8.10;;
33696;SDS011;20031;43.416;23.232;2023-03-14T13:15:03;20.77;;;7.63;;
33696;SDS011;20031;43.416;23.232;2023-03-14T13:17:45;14.07;;;7.25;;
33696;SDS011;20031;43.416;23.232;2023-03-14T13:20:15;16.75;;;9.30;;
33696;SDS011;20031;43.416;23.232;2023-03-14T13:22:45;24.20;;;9.18;;
33696;SDS011;20031;43.416;23.232;2023-03-14T13:25:13;23.10;;;10.52;;
33696;SDS011;20031;43.416;23.232;2023-03-14T13:27:39;24.85;;;9.25;;
33696;SDS011;20031;43.416;23.232;2023-03-14T13:30:22;28.48;;;12.05;;
33696;SDS011;20031;43.416;23.232;2023-03-14T13:32:52;23.25;;;10.15;;
33696;SDS011;20031;43.416;23.232;2023-03-14T13:35:24;20.10;;;10.52;;
33696;SDS011;20031;43.416;23.232;2023-03-14T13:38:00;20.20;;;8.48;;
33696;SDS011;20031;43.416;23.232;2023-03-14T13:40:33;15.50;;;7.95;;
33696;SDS011;20031;43.416;23.232;2023-03-14T13:43:01;22.10;;;9.70;;
33696;SDS011;20031;43.416;23.232;2023-03-14T13:45:29;22.45;;;8.48;;
33696;SDS011;20031;43.416;23.232;2023-03-14T13:47:54;19.25;;;7.93;;
33696;SDS011;20031;43.416;23.232;2023-03-14T13:50:20;13.15;;;7.35;;
33696;SDS011;20031;43.416;23.232;2023-03-14T13:52:45;18.58;;;7.57;;
33696;SDS011;20031;43.416;23.232;2023-03-14T13:55:17;15.45;;;7.85;;
33696;SDS011;20031;43.416;23.232;2023-03-14T13:57:44;21.75;;;9.40;;
33696;SDS011;20031;43.416;23.232;2023-03-14T14:00:18;14.05;;;7.10;;
33696;SDS011;20031;43.416;23.232;2023-03-14T14:02:45;17.80;;;7.57;;
33696;SDS011;20031;43.416;23.232;2023-03-14T14:05:11;20.73;;;6.88;;
33696;SDS011;20031;43.416;23.232;2023-03-14T14:07:37;19.08;;;7.20;;
33696;SDS011;20031;43.416;23.232;2023-03-14T14:10:04;14.15;;;6.65;;
33696;SDS011;20031;43.416;23.232;2023-03-14T14:12:35;15.98;;;6.68;;
33696;SDS011;20031;43.416;23.232;2023-03-14T14:15:05;19.00;;;6.90;;
33696;SDS011;20031;43.416;23.232;2023-03-14T14:17:41;23.15;;;7.57;;
33696;SDS011;20031;43.416;23.232;2023-03-14T14:22:42;12.18;;;6.43;;
33696;SDS011;20031;43.416;23.232;2023-03-14T14:25:12;20.45;;;7.68;;
33696;SDS011;20031;43.416;23.232;2023-03-14T14:27:39;20.75;;;7.40;;
33696;SDS011;20031;43.416;23.232;2023-03-14T14:32:41;26.63;;;8.40;;
33696;SDS011;20031;43.416;23.232;2023-03-14T14:35:08;19.52;;;8.23;;
33696;SDS011;20031;43.416;23.232;2023-03-14T14:37:42;51.85;;;8.40;;
33696;SDS011;20031;43.416;23.232;2023-03-14T14:42:48;39.83;;;10.10;;
33696;SDS011;20031;43.416;23.232;2023-03-14T14:45:22;30.10;;;7.70;;
33696;SDS011;20031;43.416;23.232;2023-03-14T14:47:58;28.77;;;8.23;;
33696;SDS011;20031;43.416;23.232;2023-03-14T14:50:39;24.75;;;6.43;;
33696;SDS011;20031;43.416;23.232;2023-03-14T14:53:21;25.52;;;8.00;;
33696;SDS011;20031;43.416;23.232;2023-03-14T14:55:53;27.42;;;9.95;;
33696;SDS011;20031;43.416;23.232;2023-03-14T14:58:25;18.73;;;8.35;;
33696;SDS011;20031;43.416;23.232;2023-03-14T15:00:59;19.48;;;6.22;;
33696;SDS011;20031;43.416;23.232;2023-03-14T15:03:30;11.95;;;6.22;;
33696;SDS011;20031;43.416;23.232;2023-03-14T15:05:58;21.80;;;6.32;;
33696;SDS011;20031;43.416;23.232;2023-03-14T15:08:24;22.85;;;5.90;;
33696;SDS011;20031;43.416;23.232;2023-03-14T15:10:51;43.75;;;7.78;;
33696;SDS011;20031;43.416;23.232;2023-03-14T15:13:17;33.95;;;12.30;;
33696;SDS011;20031;43.416;23.232;2023-03-14T15:15:42;31.27;;;13.20;;
33696;SDS011;20031;43.416;23.232;2023-03-14T15:18:18;37.88;;;15.82;;
33696;SDS011;20031;43.416;23.232;2023-03-14T15:20:44;45.38;;;19.88;;
33696;SDS011;20031;43.416;23.232;2023-03-14T15:23:14;37.63;;;14.85;;
33696;SDS011;20031;43.416;23.232;2023-03-14T15:25:41;24.08;;;9.65;;
33696;SDS011;20031;43.416;23.232;2023-03-14T15:28:16;23.98;;;12.30;;
33696;SDS011;20031;43.416;23.232;2023-03-14T15:30:45;33.30;;;14.40;;
33696;SDS011;20031;43.416;23.232;2023-03-14T15:33:12;34.88;;;17.13;;
33696;SDS011;20031;43.416;23.232;2023-03-14T15:35:38;30.42;;;12.75;;
33696;SDS011;20031;43.416;23.232;2023-03-14T15:38:03;28.38;;;11.73;;
33696;SDS011;20031;43.416;23.232;2023-03-14T15:40:29;33.10;;;12.30;;
33696;SDS011;20031;43.416;23.232;2023-03-14T15:42:55;35.13;;;14.75;;
33696;SDS011;20031;43.416;23.232;2023-03-14T15:45:21;51.83;;;15.95;;
33696;SDS011;20031;43.416;23.232;2023-03-14T15:47:46;43.83;;;16.33;;
33696;SDS011;20031;43.416;23.232;2023-03-14T15:50:12;54.30;;;16.20;;